createdAt,value
2023-01-01T00:01:30.500Z,100303.59
2023-01-01T00:04:03.015Z,100256.72
2023-01-01T00:06:36.366Z,100314.75
2023-01-01T00:09:18.874Z,100317.47
2023-01-01T00:11:51.212Z,100328.53
2023-01-01T00:14:20.901Z,100321.59
2023-01-01T00:16:50.778Z,100337.94
2023-01-01T00:19:21.562Z,100309.72
2023-01-01T00:21:51.285Z,100337.03
2023-01-01T00:24:24.388Z,100320.81
2023-01-01T00:26:56.715Z,100343.09
2023-01-01T00:29:27.436Z,100313.09
2023-01-01T00:32:02.468Z,100290.91
2023-01-01T00:34:32.295Z,100313.13
2023-01-01T00:37:02.115Z,100284.88
2023-01-01T00:39:32.837Z,100319.06
2023-01-01T00:42:06.344Z,100333.66
2023-01-01T00:44:37.033Z,100328.38
2023-01-01T00:47:10.419Z,100313.88
2023-01-01T00:49:42.115Z,100331.88
2023-01-01T00:52:15.294Z,100338.78
2023-01-01T00:54:46.015Z,100321.59
2023-01-01T00:57:18.335Z,100317.34
2023-01-01T00:59:49.718Z,100342.19
2023-01-01T01:02:19.604Z,100348.19
2023-01-01T01:04:53.369Z,100331.94
2023-01-01T01:07:24.121Z,100348.94
2023-01-01T01:09:57.335Z,100344.72
2023-01-01T01:12:30.657Z,100330.19
2023-01-01T01:15:00.294Z,100361.84
2023-01-01T01:17:30.115Z,100345.63
2023-01-01T01:20:01.943Z,100350.69
2023-01-01T01:22:31.898Z,100360.91
2023-01-01T01:25:06.307Z,100349.78
2023-01-01T01:27:38.644Z,100347.25
2023-01-01T01:30:10.372Z,100306.22
2023-01-01T01:32:41.081Z,100339.56
2023-01-01T01:35:14.428Z,100342.19
2023-01-01T01:37:44.208Z,100361.84
2023-01-01T01:40:17.638Z,100345.69
2023-01-01T01:42:53.773Z,100342.31
2023-01-01T01:45:25.906Z,100332.09
2023-01-01T01:48:02.370Z,100273.91
2023-01-01T01:50:36.565Z,100343.13
2023-01-01T01:53:12.024Z,100331.16
2023-01-01T01:55:50.158Z,100343.94
2023-01-01T01:58:22.877Z,100345.69
2023-01-01T02:00:53.024Z,100340.56
2023-01-01T02:03:25.927Z,100337.03
2023-01-01T02:05:57.662Z,100346.50
2023-01-01T02:08:28.357Z,100352.44
2023-01-01T02:10:58.367Z,100347.34
2023-01-01T02:13:30.911Z,100363.56
2023-01-01T02:16:10.083Z,100357.59
2023-01-01T02:18:45.737Z,100375.59
2023-01-01T02:21:23.262Z,100353.25
2023-01-01T02:24:20.179Z,100361.06
2023-01-01T02:26:56.917Z,100366.19
2023-01-01T02:29:41.645Z,100341.28
2023-01-01T02:32:15.322Z,100355.09
2023-01-01T02:34:52.900Z,100385.94
2023-01-01T02:37:24.571Z,100391.06
2023-01-01T02:40:01.501Z,100388.50
2023-01-01T02:42:36.014Z,100379.91
2023-01-01T02:45:10.597Z,100361.09
2023-01-01T02:47:41.363Z,100362.78
2023-01-01T02:50:16.737Z,100354.31
2023-01-01T02:53:01.376Z,100345.75
2023-01-01T02:55:39.577Z,100351.69
2023-01-01T02:58:28.819Z,100380.81
2023-01-01T03:01:08.502Z,100377.41
2023-01-01T03:03:44.001Z,100363.75
2023-01-01T03:06:27.128Z,100379.13
2023-01-01T03:09:07.814Z,100380.06
2023-01-01T03:11:43.031Z,100384.38
2023-01-01T03:14:22.130Z,100387.72
2023-01-01T03:17:00.176Z,100386.00
2023-01-01T03:19:33.244Z,100380.06
2023-01-01T03:22:07.395Z,100380.03
2023-01-01T03:24:41.585Z,100368.97
2023-01-01T03:27:15.795Z,100315.13
2023-01-01T03:29:46.851Z,100380.06
2023-01-01T03:32:22.601Z,100363.81
2023-01-01T03:34:56.331Z,100345.84
2023-01-01T03:37:31.855Z,100376.63
2023-01-01T03:40:02.371Z,100373.19
2023-01-01T03:42:37.586Z,100363.88
2023-01-01T03:45:12.174Z,100396.34
2023-01-01T03:47:44.630Z,100380.94
2023-01-01T03:50:15.778Z,100346.78
2023-01-01T03:52:53.643Z,100396.38
2023-01-01T03:55:34.218Z,100388.69
2023-01-01T03:58:06.579Z,100394.63
2023-01-01T04:00:39.082Z,100394.69
2023-01-01T04:03:16.126Z,100402.41
2023-01-01T04:05:47.003Z,100390.38
2023-01-01T04:08:18.232Z,100390.38
2023-01-01T04:10:53.946Z,100398.09
2023-01-01T04:13:23.603Z,100392.97
2023-01-01T04:15:53.698Z,100382.75
2023-01-01T04:18:25.993Z,100389.53
2023-01-01T04:20:55.596Z,100393.00
2023-01-01T04:23:25.278Z,100392.19
2023-01-01T04:25:54.923Z,100400.78
2023-01-01T04:28:24.629Z,100390.50
2023-01-01T04:33:22.730Z,100413.63
2023-01-01T04:35:54.986Z,100399.09
2023-01-01T04:38:24.635Z,100414.50
2023-01-01T04:41:00.725Z,100429.03
2023-01-01T04:43:30.682Z,100412.75
2023-01-01T04:46:01.534Z,100438.47
2023-01-01T04:48:32.576Z,100435.88
2023-01-01T04:51:07.182Z,100435.88
2023-01-01T04:53:38.076Z,100435.03
2023-01-01T04:56:08.551Z,100436.78
2023-01-01T04:58:39.584Z,100437.59
2023-01-01T05:01:09.809Z,100435.03
2023-01-01T05:03:39.999Z,100444.44
2023-01-01T05:06:13.817Z,100435.88
2023-01-01T05:08:45.216Z,100424.75
2023-01-01T05:11:18.208Z,100444.44
2023-01-01T05:13:50.247Z,100435.84
2023-01-01T05:16:21.918Z,100441.84
2023-01-01T05:18:52.339Z,100432.44
2023-01-01T05:21:26.585Z,100436.75
2023-01-01T05:23:59.010Z,100453.91
2023-01-01T05:26:34.172Z,100465.88
2023-01-01T05:29:07.788Z,100514.72
2023-01-01T05:31:41.477Z,100490.72
2023-01-01T05:34:11.106Z,100500.16
2023-01-01T05:36:43.397Z,100498.44
2023-01-01T05:39:15.186Z,100497.56
2023-01-01T05:41:45.129Z,100500.13
2023-01-01T05:44:16.644Z,100483.03
2023-01-01T05:46:46.468Z,100490.72
2023-01-01T05:49:16.249Z,100485.59
2023-01-01T05:51:48.448Z,100483.00
2023-01-01T05:56:46.458Z,100501.00
2023-01-01T05:59:16.300Z,100494.16
2023-01-01T06:01:46.415Z,100477.88
2023-01-01T06:04:16.647Z,100499.31
2023-01-01T06:06:48.898Z,100478.75
2023-01-01T06:09:18.513Z,100494.19
2023-01-01T06:11:48.146Z,100471.91
2023-01-01T06:14:17.737Z,100525.84
2023-01-01T06:16:47.434Z,100492.47
2023-01-01T06:19:17.109Z,100498.47
2023-01-01T06:21:49.351Z,100507.84
2023-01-01T06:24:18.975Z,100492.44
2023-01-01T06:26:48.644Z,100504.44
2023-01-01T06:29:18.225Z,100484.75
2023-01-01T06:31:47.824Z,100507.00
2023-01-01T06:34:17.459Z,100517.28
2023-01-01T06:36:49.680Z,100517.28
2023-01-01T06:39:19.315Z,100521.56
2023-01-01T06:41:48.968Z,100536.09
2023-01-01T06:44:18.588Z,100542.06
2023-01-01T06:46:48.201Z,100519.78
2023-01-01T06:49:17.946Z,100560.88
2023-01-01T06:51:50.216Z,100572.00
2023-01-01T06:54:19.882Z,100598.56
2023-01-01T06:56:49.920Z,100590.06
2023-01-01T06:59:19.921Z,100589.19
2023-01-01T07:01:49.615Z,100589.13
2023-01-01T07:04:19.491Z,100564.28
2023-01-01T07:06:51.674Z,100546.31
2023-01-01T07:09:21.731Z,100566.91
2023-01-01T07:11:51.353Z,100562.66
2023-01-01T07:14:20.987Z,100572.00
2023-01-01T07:16:50.651Z,100594.28
2023-01-01T07:19:20.354Z,100596.94
2023-01-01T07:21:55.334Z,100558.31
2023-01-01T07:24:25.338Z,100607.97
2023-01-01T07:26:54.938Z,100620.81
2023-01-01T07:29:24.539Z,100639.72
2023-01-01T07:31:54.129Z,100655.09
2023-01-01T07:34:24.089Z,100661.97
2023-01-01T07:36:57.639Z,100676.53
2023-01-01T07:39:27.271Z,100667.88
2023-01-01T07:41:56.903Z,100671.38
2023-01-01T07:44:26.523Z,100686.81
2023-01-01T07:47:04.703Z,100667.91
2023-01-01T07:49:34.414Z,100680.84
2023-01-01T07:52:06.870Z,100685.16
2023-01-01T07:54:36.527Z,100676.56
2023-01-01T07:57:06.185Z,100688.56
2023-01-01T07:59:35.848Z,100697.13
2023-01-01T08:02:06.359Z,100698.81
2023-01-01T08:04:36.005Z,100709.97
2023-01-01T08:07:08.280Z,100709.97
2023-01-01T08:09:37.878Z,100697.94
2023-01-01T08:12:08.215Z,100716.81
2023-01-01T08:14:37.811Z,100722.78
2023-01-01T08:17:08.441Z,100721.09
2023-01-01T08:19:39.110Z,100729.63
2023-01-01T08:22:11.446Z,100726.97
2023-01-01T08:24:42.417Z,100739.84
2023-01-01T08:27:15.088Z,100731.22
2023-01-01T08:29:45.128Z,100743.16
2023-01-01T08:32:15.868Z,100736.28
2023-01-01T08:34:45.541Z,100749.19
2023-01-01T08:37:18.333Z,100753.50
2023-01-01T08:39:52.210Z,100768.94
2023-01-01T08:42:22.067Z,100771.50
2023-01-01T08:44:53.694Z,100790.28
2023-01-01T08:47:26.845Z,100785.94
2023-01-01T08:49:57.517Z,100802.22
2023-01-01T08:52:29.862Z,100778.97
2023-01-01T08:55:01.545Z,100802.91
2023-01-01T08:57:33.296Z,100826.06
2023-01-01T09:00:04.077Z,100820.91
2023-01-01T09:02:35.402Z,100828.47
2023-01-01T09:05:06.319Z,100852.53
2023-01-01T09:07:38.867Z,100839.59
2023-01-01T09:10:09.837Z,100846.34
2023-01-01T09:12:41.573Z,100826.56
2023-01-01T09:15:17.618Z,100839.34
2023-01-01T09:17:49.548Z,100880.53
2023-01-01T09:20:20.257Z,100856.34
2023-01-01T09:22:52.752Z,100898.47
2023-01-01T09:25:23.487Z,100888.97
2023-01-01T09:28:00.537Z,100894.09
2023-01-01T09:30:32.346Z,100905.19
2023-01-01T09:33:07.794Z,100894.78
2023-01-01T09:35:38.603Z,100928.38
2023-01-01T09:38:12.971Z,100927.34
2023-01-01T09:40:51.740Z,100935.28
2023-01-01T09:43:35.569Z,100925.78
2023-01-01T09:46:09.008Z,100958.44
2023-01-01T09:48:42.063Z,100970.38
2023-01-01T09:51:18.747Z,100972.00
2023-01-01T09:53:57.858Z,100982.25
2023-01-01T09:56:30.589Z,100986.38
2023-01-01T09:59:01.611Z,100981.09
2023-01-01T10:01:44.104Z,100990.47
2023-01-01T10:04:27.289Z,100989.09
2023-01-01T10:07:06.530Z,100961.09
2023-01-01T10:09:49.039Z,100957.31
2023-01-01T10:12:28.139Z,100981.28
2023-01-01T10:15:06.024Z,100964.97
2023-01-01T10:17:42.021Z,100985.34
2023-01-01T10:20:23.150Z,100988.13
2023-01-01T10:22:57.212Z,100934.13
2023-01-01T10:25:33.591Z,100957.41
2023-01-01T10:28:07.577Z,100984.84
2023-01-01T10:30:39.532Z,100984.88
2023-01-01T10:33:15.085Z,100969.41
2023-01-01T10:35:49.389Z,100986.53
2023-01-01T10:38:25.894Z,100974.78
2023-01-01T10:41:05.995Z,100983.69
2023-01-01T10:43:37.728Z,100971.50
2023-01-01T10:46:09.326Z,100972.41
2023-01-01T10:48:39.068Z,100988.59
2023-01-01T10:51:16.213Z,100989.19
2023-01-01T10:53:52.391Z,100994.09
2023-01-01T10:56:28.929Z,100995.72
2023-01-01T10:59:00.233Z,100985.09
2023-01-01T11:01:34.029Z,100970.16
2023-01-01T11:04:19.867Z,100964.19
2023-01-01T11:06:50.505Z,100967.03
2023-01-01T11:09:25.717Z,100947.38
2023-01-01T11:12:09.568Z,100956.06
2023-01-01T11:14:51.157Z,100956.97
2023-01-01T11:17:24.709Z,100980.28
2023-01-01T11:20:01.480Z,100957.09
2023-01-01T11:22:43.003Z,100962.00
2023-01-01T11:25:28.570Z,100974.03
2023-01-01T11:28:23.453Z,100975.69
2023-01-01T11:31:03.791Z,100958.63
2023-01-01T11:33:41.563Z,100981.28
2023-01-01T11:36:12.575Z,100972.81
2023-01-01T11:38:42.457Z,100950.19
2023-01-01T11:41:17.512Z,100962.25
2023-01-01T11:43:50.668Z,100951.72
2023-01-01T11:46:27.237Z,100940.72
2023-01-01T11:48:58.062Z,100962.03
2023-01-01T11:51:34.456Z,100977.78
2023-01-01T11:54:24.294Z,100985.78
2023-01-01T11:56:58.668Z,100973.78
2023-01-01T11:59:48.496Z,101000.22
2023-01-01T12:02:31.886Z,100993.41
2023-01-01T12:05:11.290Z,100997.78
2023-01-01T12:07:45.680Z,100956.38
2023-01-01T12:10:23.169Z,101008.81
2023-01-01T12:12:58.026Z,101005.59
2023-01-01T12:15:38.071Z,101010.72
2023-01-01T12:18:18.823Z,101003.00
2023-01-01T12:20:55.297Z,100996.03
2023-01-01T12:23:25.117Z,101002.34
2023-01-01T12:26:04.501Z,100954.13
2023-01-01T12:28:43.237Z,101007.50
2023-01-01T12:31:25.274Z,100978.94
2023-01-01T12:34:10.429Z,100996.03
2023-01-01T12:36:51.501Z,101010.59
2023-01-01T12:39:52.305Z,100995.13
2023-01-01T12:42:36.858Z,101017.47
2023-01-01T12:45:31.362Z,101024.25
2023-01-01T12:48:29.150Z,100995.34
2023-01-01T12:51:10.946Z,101003.13
2023-01-01T12:53:50.167Z,100976.66
2023-01-01T12:56:29.478Z,100970.78
2023-01-01T12:59:08.974Z,100999.41
2023-01-01T13:01:46.945Z,100992.56
2023-01-01T13:04:25.288Z,100959.91
2023-01-01T13:07:03.840Z,100984.28
2023-01-01T13:09:37.138Z,100980.06
2023-01-01T13:12:10.982Z,100972.50
2023-01-01T13:14:42.058Z,100975.84
2023-01-01T13:17:22.293Z,100982.44
2023-01-01T13:20:00.928Z,101008.78
2023-01-01T13:22:43.136Z,100996.78
2023-01-01T13:25:25.320Z,100987.38
2023-01-01T13:28:07.875Z,100997.03
2023-01-01T13:30:51.927Z,100982.06
2023-01-01T13:33:29.724Z,100956.25
2023-01-01T13:36:21.438Z,100991.56
2023-01-01T13:38:57.262Z,100994.13
2023-01-01T13:41:43.056Z,100954.63
2023-01-01T13:44:21.846Z,100983.97
2023-01-01T13:47:16.724Z,100985.72
2023-01-01T13:50:06.074Z,100966.84
2023-01-01T13:53:00.964Z,100986.59
2023-01-01T13:55:49.051Z,100983.19
2023-01-01T13:58:47.324Z,100990.88
2023-01-01T14:01:57.931Z,100991.47
2023-01-01T14:04:41.785Z,101004.34
2023-01-01T14:07:50.191Z,100978.56
2023-01-01T14:10:30.586Z,101003.44
2023-01-01T14:13:18.999Z,100999.88
2023-01-01T14:15:56.547Z,101004.94
2023-01-01T14:18:35.144Z,101010.88
2023-01-01T14:21:05.475Z,101022.84
2023-01-01T14:23:38.339Z,101027.28
2023-01-01T14:26:14.337Z,101027.41
2023-01-01T14:28:55.768Z,101029.97
2023-01-01T14:31:30.089Z,101025.69
2023-01-01T14:34:02.469Z,101017.28
2023-01-01T14:36:34.140Z,101019.06
2023-01-01T14:39:27.359Z,101025.94
2023-01-01T14:42:00.518Z,101014.78
2023-01-01T14:44:38.296Z,101003.56
2023-01-01T14:47:25.957Z,100989.06
2023-01-01T14:50:03.632Z,101002.91
2023-01-01T14:52:35.545Z,101002.63
2023-01-01T14:55:07.634Z,101021.59
2023-01-01T14:57:39.880Z,101016.31
2023-01-01T15:00:25.478Z,100986.16
2023-01-01T15:02:55.205Z,101012.22
2023-01-01T15:05:35.856Z,101001.09
2023-01-01T15:08:09.287Z,101014.16
2023-01-01T15:10:42.557Z,101047.78
2023-01-01T15:13:20.947Z,101032.16
2023-01-01T15:15:58.441Z,101046.81
2023-01-01T15:18:44.165Z,101056.34
2023-01-01T15:21:18.981Z,101056.34
2023-01-01T15:23:55.834Z,101060.53
2023-01-01T15:26:32.461Z,101049.41
2023-01-01T15:29:03.557Z,101062.16
2023-01-01T15:31:42.450Z,101053.59
2023-01-01T15:34:28.060Z,101070.81
2023-01-01T15:37:07.533Z,101062.22
2023-01-01T15:39:48.281Z,101075.13
2023-01-01T15:42:30.775Z,101065.66
2023-01-01T15:45:16.444Z,101051.81
2023-01-01T15:47:52.700Z,101064.78
2023-01-01T15:50:24.824Z,101057.13
2023-01-01T15:52:58.527Z,101035.78
2023-01-01T15:55:30.465Z,101011.53
2023-01-01T15:58:01.215Z,101057.97
2023-01-01T16:00:34.710Z,101032.94
2023-01-01T16:03:21.025Z,101068.91
2023-01-01T16:05:55.364Z,101055.13
2023-01-01T16:08:26.468Z,101044.03
2023-01-01T16:10:56.175Z,101040.56
2023-01-01T16:13:27.936Z,101049.19
2023-01-01T16:15:59.914Z,101007.75
2023-01-01T16:18:36.764Z,101058.50
2023-01-01T16:21:09.806Z,101058.44
2023-01-01T16:23:39.485Z,101058.34
2023-01-01T16:26:10.250Z,101055.81
2023-01-01T16:28:43.503Z,101035.19
2023-01-01T16:31:18.432Z,101035.19
2023-01-01T16:33:56.291Z,101054.16
2023-01-01T16:36:27.487Z,101041.22
2023-01-01T16:38:58.433Z,101051.56
2023-01-01T16:41:30.390Z,101030.91
2023-01-01T16:44:01.438Z,101061.81
2023-01-01T16:46:33.551Z,101055.81
2023-01-01T16:49:06.693Z,101056.75
2023-01-01T16:51:40.692Z,101063.53
2023-01-01T16:54:14.252Z,101069.56
2023-01-01T16:56:44.949Z,101060.88
2023-01-01T16:59:17.338Z,101068.63
2023-01-01T17:01:49.127Z,101041.91
2023-01-01T17:04:23.572Z,101068.59
2023-01-01T17:06:54.236Z,101047.88
2023-01-01T17:09:25.043Z,101069.25
2023-01-01T17:11:55.179Z,101051.03
2023-01-01T17:14:24.811Z,101068.13
2023-01-01T17:16:56.452Z,101054.31
2023-01-01T17:19:29.914Z,101056.03
2023-01-01T17:21:59.667Z,101066.44
2023-01-01T17:24:32.540Z,101076.88
2023-01-01T17:27:04.224Z,101087.97
2023-01-01T17:29:35.950Z,101026.75
2023-01-01T17:32:05.997Z,101016.41
2023-01-01T17:34:42.203Z,101031.19
2023-01-01T17:37:11.947Z,101062.25
2023-01-01T17:39:42.661Z,101077.06
2023-01-01T17:42:13.410Z,101070.25
2023-01-01T17:44:43.103Z,101059.97
2023-01-01T17:47:16.566Z,101071.28
2023-01-01T17:49:49.809Z,101073.06
2023-01-01T17:52:19.520Z,101043.84
2023-01-01T17:54:51.811Z,101074.03
2023-01-01T17:57:21.894Z,101057.84
2023-01-01T17:59:52.568Z,101051.16
2023-01-01T18:02:22.604Z,101035.59
2023-01-01T18:04:55.309Z,101046.69
2023-01-01T18:07:25.969Z,101032.78
2023-01-01T18:09:55.673Z,101047.16
2023-01-01T18:12:25.421Z,101026.53
2023-01-01T18:14:55.029Z,101028.22
2023-01-01T18:17:26.832Z,101022.91
2023-01-01T18:19:59.041Z,101012.47
2023-01-01T18:22:28.745Z,100992.53
2023-01-01T18:24:59.671Z,101023.47
2023-01-01T18:27:30.315Z,101020.03
2023-01-01T18:30:03.619Z,101022.84
2023-01-01T18:32:33.480Z,100997.94
2023-01-01T18:35:06.621Z,101026.19
2023-01-01T18:37:39.652Z,101029.84
2023-01-01T18:40:14.969Z,101005.88
2023-01-01T18:42:53.512Z,100977.19
2023-01-01T18:45:26.220Z,101005.59
2023-01-01T18:47:59.546Z,101027.03
2023-01-01T18:50:35.918Z,101013.25
2023-01-01T18:53:19.867Z,101023.66
2023-01-01T18:55:53.789Z,101018.50
2023-01-01T18:58:26.528Z,101004.63
2023-01-01T19:00:57.235Z,101016.00
2023-01-01T19:03:37.495Z,100994.38
2023-01-01T19:06:26.410Z,101020.28
2023-01-01T19:09:09.420Z,101001.34
2023-01-01T19:11:40.857Z,100992.09
2023-01-01T19:14:18.154Z,101003.41
2023-01-01T19:16:52.860Z,101003.09
2023-01-01T19:19:25.666Z,100995.38
2023-01-01T19:22:09.367Z,101001.63
2023-01-01T19:24:46.675Z,100973.00
2023-01-01T19:27:21.577Z,100974.03
2023-01-01T19:29:52.883Z,100983.47
2023-01-01T19:32:23.496Z,100988.69
2023-01-01T19:34:56.595Z,100937.84
2023-01-01T19:37:30.822Z,100988.03
2023-01-01T19:40:01.534Z,100999.13
2023-01-01T19:42:32.802Z,100968.13
2023-01-01T19:45:03.627Z,100995.75
2023-01-01T19:47:38.257Z,100982.75
2023-01-01T19:50:08.986Z,100991.25
2023-01-01T19:52:42.524Z,100993.72
2023-01-01T19:55:13.027Z,101002.34
2023-01-01T19:57:48.622Z,101004.03
2023-01-01T20:00:18.758Z,100978.25
2023-01-01T20:02:48.826Z,101016.03
2023-01-01T20:05:19.058Z,101004.94
2023-01-01T20:07:51.427Z,101000.72
2023-01-01T20:10:24.618Z,100999.50
2023-01-01T20:13:01.388Z,100997.09
2023-01-01T20:15:31.046Z,100984.78
2023-01-01T20:18:00.715Z,100996.00
2023-01-01T20:20:30.378Z,100995.06
2023-01-01T20:23:02.706Z,100979.59
2023-01-01T20:25:32.409Z,100988.09
2023-01-01T20:28:15.615Z,100976.34
2023-01-01T20:30:46.324Z,100967.47
2023-01-01T20:33:17.711Z,100971.69
2023-01-01T20:36:10.757Z,100962.25
2023-01-01T20:38:42.946Z,100961.34
2023-01-01T20:41:26.247Z,100948.50
2023-01-01T20:44:02.391Z,100959.03
2023-01-01T20:46:32.545Z,100933.88
2023-01-01T20:49:03.290Z,100940.91
2023-01-01T20:51:33.031Z,100933.41
2023-01-01T20:54:06.468Z,100955.00
2023-01-01T20:56:40.744Z,100929.31
2023-01-01T20:59:34.184Z,100930.34
2023-01-01T21:02:04.593Z,100931.47
2023-01-01T21:04:38.519Z,100938.34
2023-01-01T21:07:10.175Z,100928.94
2023-01-01T21:09:43.547Z,100910.84
2023-01-01T21:12:13.683Z,100891.06
2023-01-01T21:14:44.297Z,100884.00
2023-01-01T21:17:23.017Z,100915.34
2023-01-01T21:19:54.681Z,100904.84
2023-01-01T21:22:26.784Z,100889.41
2023-01-01T21:25:24.085Z,100884.16
2023-01-01T21:27:50.626Z,100879.84
2023-01-01T21:30:24.900Z,100871.22
2023-01-01T21:32:54.623Z,100875.38
2023-01-01T21:35:26.085Z,100849.53
2023-01-01T21:38:01.179Z,100890.16
2023-01-01T21:40:39.803Z,100867.84
2023-01-01T21:43:26.909Z,100858.28
2023-01-01T21:45:57.956Z,100892.72
2023-01-01T21:48:32.821Z,100886.16
2023-01-01T21:51:03.391Z,100883.47
2023-01-01T21:53:38.593Z,100823.31
2023-01-01T21:56:28.836Z,100866.31
2023-01-01T21:59:18.877Z,100831.97
2023-01-01T22:01:49.091Z,100844.31
2023-01-01T22:04:23.694Z,100812.66
2023-01-01T22:06:56.043Z,100828.28
2023-01-01T22:09:27.999Z,100828.25
2023-01-01T22:12:08.784Z,100814.59
2023-01-01T22:14:41.961Z,100811.81
2023-01-01T22:17:17.476Z,100802.56
2023-01-01T22:19:48.508Z,100807.47
2023-01-01T22:22:20.827Z,100805.72
2023-01-01T22:24:54.767Z,100806.00
2023-01-01T22:27:34.753Z,100794.16
2023-01-01T22:30:32.324Z,100783.16
2023-01-01T22:33:02.890Z,100787.34
2023-01-01T22:35:34.725Z,100797.63
2023-01-01T22:38:05.775Z,100792.41
2023-01-01T22:40:37.841Z,100785.81
2023-01-01T22:43:15.502Z,100754.25
2023-01-01T22:45:48.187Z,100766.31
2023-01-01T22:48:24.345Z,100760.34
2023-01-01T22:50:56.693Z,100767.16
2023-01-01T22:53:26.347Z,100770.66
2023-01-01T22:55:56.267Z,100760.38
2023-01-01T22:58:28.501Z,100746.75
2023-01-01T23:00:58.168Z,100756.22
2023-01-01T23:03:27.870Z,100750.22
2023-01-01T23:05:57.902Z,100745.09
2023-01-01T23:08:27.823Z,100738.94
2023-01-01T23:10:57.690Z,100707.94
2023-01-01T23:13:42.434Z,100741.38
2023-01-01T23:16:12.219Z,100723.38
2023-01-01T23:18:41.933Z,100737.00
2023-01-01T23:21:14.578Z,100727.59
2023-01-01T23:23:44.973Z,100724.13
2023-01-01T23:26:15.026Z,100735.19
2023-01-01T23:28:47.429Z,100726.00
2023-01-01T23:31:24.846Z,100702.56
2023-01-01T23:33:55.734Z,100716.41
2023-01-01T23:36:25.942Z,100710.47
2023-01-01T23:38:56.140Z,100712.91
2023-01-01T23:41:25.841Z,100714.53
2023-01-01T23:43:58.166Z,100702.56
2023-01-01T23:46:28.141Z,100705.25
2023-01-01T23:48:58.048Z,100706.06
2023-01-01T23:51:27.726Z,100684.72
2023-01-01T23:53:57.387Z,100698.34
2023-01-01T23:56:27.065Z,100688.88
2023-01-01T23:58:59.305Z,100695.06
